Terminal Aerodrome Forecast
Issued by NWS Columbia, SC

Home | Current Version | Previous Version | Text Only | Print | Product List | Glossary On
Versions: 1 2 3 4 5 6 7 8 9 10 11 12 13 14 15 16 17 18 19 20 21 22 23 24 25 26 27 28 29 30 31 32 33
000
FTUS42 KCAE 060834 AAA
TAFCAE
TAF AMD
KCAE 060834Z 0609/0706 27006KT P6SM BKN045
     FM061400 30010G16KT P6SM BKN045
     FM061800 30009KT P6SM VCSH SCT045 BKN060
     FM062300 VRB04KT P6SM FEW060=

USA.gov is the U.S. government's official web portal to all federal, state and local government web resources and services.